Time;durP1;ratioP1;P1;durP2;ratioP2;P2;SDS_P1;SDS_P2;PMS_P1;PMS_P2;Temp;Humidity;BMP_temperature;BMP_pressure;BME280_temperature;BME280_humidity;BME280_pressure;Samples;Min_cycle;Max_cycle;Signal;HPM_P1;HPM_P2
2022/07/25 00:01:24;;;;;;;5.40;4.85;;;;;;;18.38;90.85;99237.14;1747586;82;20996;-83
2022/07/25 00:03:52;;;;;;;5.55;4.85;;;;;;;18.36;90.89;99235.07;1747589;82;21542;-82
2022/07/25 00:06:19;;;;;;;5.50;4.95;;;;;;;18.35;90.85;99236.02;1747418;82;21091;-82
2022/07/25 00:08:45;;;;;;;5.35;4.85;;;;;;;18.35;90.74;99245.83;1748003;82;21095;-81
2022/07/25 00:11:14;;;;;;;6.47;4.70;;;;;;;18.35;90.53;99241.84;1747570;82;21103;-82
2022/07/25 00:13:40;;;;;;;5.00;4.53;;;;;;;18.30;90.30;99242.64;1747714;82;21067;-82
2022/07/25 00:16:07;;;;;;;10.23;5.12;;;;;;;18.24;90.30;99237.74;1747620;82;21376;-81
2022/07/25 00:18:33;;;;;;;8.55;4.60;;;;;;;18.20;90.27;99233.12;1747697;82;20988;-81
2022/07/25 00:21:01;;;;;;;5.72;4.22;;;;;;;18.14;90.22;99242.41;1747525;82;21557;-80
2022/07/25 00:23:29;;;;;;;6.60;4.50;;;;;;;18.08;90.34;99234.84;1747325;82;22226;-80
2022/07/25 00:25:56;;;;;;;5.42;4.92;;;;;;;18.05;90.43;99240.38;1747801;82;21078;-80
2022/07/25 00:28:24;;;;;;;7.17;5.05;;;;;;;18.00;90.51;99238.52;1747640;82;21601;-83
2022/07/25 00:30:51;;;;;;;6.22;4.70;;;;;;;17.95;90.61;99243.30;1747760;82;21007;-83
2022/07/25 00:33:17;;;;;;;7.00;4.92;;;;;;;17.90;90.76;99243.62;1747540;82;21144;-80
2022/07/25 00:35:44;;;;;;;6.58;4.53;;;;;;;17.90;90.84;99241.45;1747880;82;21035;-82
2022/07/25 00:38:10;;;;;;;9.08;4.90;;;;;;;17.92;90.83;99255.48;1748648;82;21015;-81
2022/07/25 00:40:37;;;;;;;8.25;4.90;;;;;;;17.92;90.85;99253.70;1748354;82;21015;-81
2022/07/25 00:43:03;;;;;;;6.35;4.80;;;;;;;17.88;90.89;99253.53;1748077;82;21605;-81
2022/07/25 00:45:30;;;;;;;6.90;4.92;;;;;;;17.83;91.02;99248.48;1743443;80;21588;-81
2022/07/25 00:47:57;;;;;;;5.75;4.67;;;;;;;17.78;91.20;99249.28;1739088;81;21085;-81
2022/07/25 00:50:23;;;;;;;5.80;4.70;;;;;;;17.72;91.38;99251.05;1739121;82;21056;-81
2022/07/25 00:52:52;;;;;;;6.65;5.03;;;;;;;17.68;91.56;99246.87;1738896;81;21061;-82
2022/07/25 00:55:19;;;;;;;6.75;5.20;;;;;;;17.66;91.67;99246.14;1743062;81;21140;-80
2022/07/25 00:57:45;;;;;;;8.63;5.03;;;;;;;17.66;91.69;99242.14;1756269;80;21249;-81
2022/07/25 01:00:14;;;;;;;11.22;5.00;;;;;;;17.64;91.73;99241.41;1780774;80;22152;-81
2022/07/25 01:02:42;;;;;;;8.73;5.75;;;;;;;17.60;91.80;99238.56;1780984;80;21055;-81
2022/07/25 01:05:09;;;;;;;6.20;5.33;;;;;;;17.56;91.89;99239.74;1781449;80;21055;-81
2022/07/25 01:07:37;;;;;;;7.72;5.22;;;;;;;17.55;91.93;99242.02;1781143;80;21098;-80
2022/07/25 01:10:05;;;;;;;8.38;4.78;;;;;;;17.52;91.88;99236.94;1781304;80;21547;-80
2022/07/25 01:12:50;;;;;;;5.83;5.22;;;;;;;17.51;91.91;99239.20;1781087;80;21031;-81
2022/07/25 01:15:19;;;;;;;9.30;5.25;;;;;;;17.50;91.89;99243.68;1780964;80;21054;-81
2022/07/25 01:17:47;;;;;;;6.70;5.17;;;;;;;17.48;91.80;99237.59;1781066;80;21075;-82
2022/07/25 01:20:21;;;;;;;9.20;5.40;;;;;;;17.45;91.72;99241.33;1781092;80;21125;-82
2022/07/25 01:22:48;;;;;;;9.25;5.12;;;;;;;17.45;91.67;99242.66;1781296;80;21111;-83
2022/07/25 01:25:15;;;;;;;11.48;5.60;;;;;;;17.45;91.66;99248.47;1780948;80;21112;-81
2022/07/25 01:27:42;;;;;;;7.85;5.08;;;;;;;17.43;91.69;99243.70;1781023;80;21130;-82
2022/07/25 01:30:13;;;;;;;7.05;5.40;;;;;;;17.42;91.74;99242.86;1781066;80;21082;-83
2022/07/25 01:32:41;;;;;;;5.78;5.10;;;;;;;17.38;91.60;99243.16;1780936;80;21054;-81
2022/07/25 01:35:09;;;;;;;11.45;5.12;;;;;;;17.35;91.65;99239.37;1780848;80;21152;-82
2022/07/25 01:37:36;;;;;;;8.05;5.00;;;;;;;17.34;91.65;99239.02;1781193;80;21046;-81
2022/07/25 01:40:03;;;;;;;8.60;5.40;;;;;;;17.34;91.57;99238.53;1781291;80;21019;-81
2022/07/25 01:42:31;;;;;;;6.53;5.45;;;;;;;17.33;91.31;99247.48;1781165;80;21004;-81
2022/07/25 01:44:57;;;;;;;9.08;4.62;;;;;;;17.31;91.15;99245.86;1781000;80;21585;-81
2022/07/25 01:47:24;;;;;;;9.48;5.15;;;;;;;17.29;91.13;99249.95;1781237;80;21132;-82
2022/07/25 01:49:51;;;;;;;8.78;5.00;;;;;;;17.26;91.22;99252.81;1781418;80;21055;-81
2022/07/25 01:52:18;;;;;;;7.15;5.25;;;;;;;17.26;91.29;99240.84;1780894;80;21684;-82
2022/07/25 01:54:44;;;;;;;5.03;4.47;;;;;;;17.25;91.21;99247.14;1780010;80;21078;-81
2022/07/25 01:57:11;;;;;;;7.05;5.08;;;;;;;17.24;91.08;99250.73;1778289;80;21086;-82
2022/07/25 01:59:38;;;;;;;5.45;4.75;;;;;;;17.22;91.11;99255.31;1778822;80;21792;-81
2022/07/25 02:02:07;;;;;;;5.47;4.97;;;;;;;17.20;91.22;99254.56;1778302;80;21043;-81
2022/07/25 02:04:34;;;;;;;8.30;4.95;;;;;;;17.18;91.33;99249.80;1778394;80;21142;-81
2022/07/25 02:07:02;;;;;;;7.12;4.72;;;;;;;17.19;91.39;99261.67;1778490;80;21102;-83
2022/07/25 02:09:29;;;;;;;5.30;4.80;;;;;;;17.16;91.28;99249.91;1778609;80;21110;-81
2022/07/25 02:11:56;;;;;;;6.45;4.80;;;;;;;17.12;91.43;99250.23;1778605;80;21142;-81
2022/07/25 02:14:23;;;;;;;6.12;5.12;;;;;;;17.08;91.57;99242.94;1778733;80;21075;-82
2022/07/25 02:16:49;;;;;;;7.50;4.83;;;;;;;17.04;91.51;99248.91;1778623;80;21194;-82
2022/07/25 02:19:18;;;;;;;7.08;4.58;;;;;;;16.99;91.51;99255.00;1778746;80;21091;-82
2022/07/25 02:21:45;;;;;;;5.45;4.87;;;;;;;16.94;91.60;99253.13;1778715;80;21138;-82
2022/07/25 02:24:12;;;;;;;9.70;5.03;;;;;;;16.89;91.62;99252.57;1778479;80;21154;-83
2022/07/25 02:26:38;;;;;;;6.37;4.12;;;;;;;16.79;91.81;99246.12;1778466;80;21141;-82
2022/07/25 02:29:05;;;;;;;5.83;4.37;;;;;;;16.77;91.92;99256.00;1778523;80;21059;-83
2022/07/25 02:31:32;;;;;;;6.87;4.78;;;;;;;16.74;92.16;99252.20;1778587;80;21601;-82
2022/07/25 02:33:59;;;;;;;9.73;4.50;;;;;;;16.74;92.20;99246.89;1778493;80;21102;-83
2022/07/25 02:36:25;;;;;;;6.15;4.87;;;;;;;16.73;92.26;99251.36;1778803;80;21054;-81
2022/07/25 02:38:52;;;;;;;5.97;4.28;;;;;;;16.76;92.18;99254.28;1778697;80;20933;-81
2022/07/25 02:41:18;;;;;;;5.17;4.60;;;;;;;16.73;92.03;99247.37;1778606;80;21004;-81
2022/07/25 02:43:45;;;;;;;12.50;5.15;;;;;;;16.71;92.01;99250.62;1778432;80;21024;-81
2022/07/25 02:46:11;;;;;;;4.72;4.03;;;;;;;16.70;91.95;99251.06;1778518;80;21106;-81
2022/07/25 02:48:37;;;;;;;8.48;4.40;;;;;;;16.70;91.90;99250.23;1778915;80;21088;-80
2022/07/25 02:51:04;;;;;;;8.33;4.62;;;;;;;16.69;91.87;99251.16;1770528;80;21017;-83
2022/07/25 02:53:31;;;;;;;6.90;4.95;;;;;;;16.66;91.87;99252.23;1760788;81;21056;-82
2022/07/25 02:55:58;;;;;;;7.62;4.28;;;;;;;16.63;91.83;99258.22;1762350;81;21008;-80
2022/07/25 02:58:24;;;;;;;7.28;4.70;;;;;;;16.58;91.67;99254.52;1763088;81;20933;-81
2022/07/25 03:00:51;;;;;;;8.13;4.65;;;;;;;16.57;91.75;99258.11;1766817;80;21114;-81
2022/07/25 03:03:18;;;;;;;7.92;4.28;;;;;;;16.56;91.67;99261.73;1781179;80;21153;-82
2022/07/25 03:05:46;;;;;;;7.55;4.80;;;;;;;16.56;91.64;99259.08;1780974;80;20988;-82
2022/07/25 03:08:13;;;;;;;6.67;4.87;;;;;;;16.55;91.65;99265.82;1781395;80;21058;-83
2022/07/25 03:10:41;;;;;;;7.08;4.35;;;;;;;16.49;91.89;99265.71;1780956;80;21098;-82
2022/07/25 03:13:07;;;;;;;7.58;4.45;;;;;;;16.46;91.99;99263.27;1781579;80;21147;-80
2022/07/25 03:15:35;;;;;;;6.85;4.50;;;;;;;16.47;92.12;99260.98;1780789;80;21071;-80
2022/07/25 03:18:02;;;;;;;9.23;4.12;;;;;;;16.47;92.33;99258.32;1781173;80;20984;-82
2022/07/25 03:20:29;;;;;;;5.08;4.37;;;;;;;16.47;92.46;99267.13;1781293;80;21070;-82
2022/07/25 03:22:55;;;;;;;10.18;4.10;;;;;;;16.49;92.50;99263.05;1781150;80;21882;-81
2022/07/25 03:25:21;;;;;;;8.63;4.40;;;;;;;16.51;92.41;99261.18;1780859;80;21184;-83
2022/07/25 03:27:49;;;;;;;6.92;4.05;;;;;;;16.55;92.34;99261.34;1780779;80;21055;-82
2022/07/25 03:30:16;;;;;;;8.95;4.15;;;;;;;16.58;92.28;99262.48;1780749;80;21130;-81
2022/07/25 03:32:42;;;;;;;9.20;4.72;;;;;;;16.60;92.19;99256.59;1780986;80;21040;-83
2022/07/25 03:35:09;;;;;;;7.50;4.55;;;;;;;16.61;91.74;99255.66;1781272;80;21506;-80
2022/07/25 03:37:35;;;;;;;4.80;3.70;;;;;;;16.61;91.71;99258.31;1781165;80;21136;-83
2022/07/25 03:40:03;;;;;;;6.97;4.33;;;;;;;16.61;91.71;99258.31;1780867;80;21067;-83
2022/07/25 03:42:30;;;;;;;7.53;4.70;;;;;;;16.61;91.71;99252.13;1781202;80;21019;-83
2022/07/25 03:44:57;;;;;;;6.65;4.10;;;;;;;16.62;91.73;99255.17;1781033;80;21050;-82
2022/07/25 03:47:24;;;;;;;4.78;3.90;;;;;;;16.62;91.69;99253.84;1781112;80;21067;-83
2022/07/25 03:49:51;;;;;;;5.00;3.98;;;;;;;16.64;91.78;99258.12;1780973;80;21113;-83
2022/07/25 03:52:17;;;;;;;6.37;4.35;;;;;;;16.66;91.55;99258.88;1781006;80;21098;-83
2022/07/25 03:54:44;;;;;;;7.33;4.97;;;;;;;16.68;91.56;99256.12;1779567;80;21107;-81
2022/07/25 03:57:11;;;;;;;5.00;4.37;;;;;;;16.71;91.25;99264.74;1772598;80;22243;-83
2022/07/25 03:59:37;;;;;;;9.45;4.70;;;;;;;16.72;90.95;99255.80;1772703;80;21126;-82
2022/07/25 04:02:04;;;;;;;4.78;4.37;;;;;;;16.75;90.70;99261.89;1772798;80;21145;-82
2022/07/25 04:04:31;;;;;;;6.05;4.33;;;;;;;16.74;90.66;99266.33;1772546;80;21058;-83
2022/07/25 04:06:57;;;;;;;7.50;3.90;;;;;;;16.70;90.50;99277.64;1772607;80;21194;-81
2022/07/25 04:09:24;;;;;;;7.22;3.62;;;;;;;16.71;90.63;99279.84;1772955;80;21012;-82
2022/07/25 04:11:50;;;;;;;11.10;4.40;;;;;;;16.75;90.65;99280.48;1772885;80;21593;-82
2022/07/25 04:14:17;;;;;;;11.35;4.30;;;;;;;16.78;90.26;99276.28;1772622;80;21810;-82
2022/07/25 04:16:43;;;;;;;11.90;4.70;;;;;;;16.78;90.25;99280.27;1772642;80;21492;-83
2022/07/25 04:19:10;;;;;;;9.83;4.22;;;;;;;16.79;90.16;99280.66;1772793;80;21024;-80
2022/07/25 04:21:36;;;;;;;5.47;3.87;;;;;;;16.80;90.13;99279.72;1772590;80;21016;-80
2022/07/25 04:24:04;;;;;;;5.60;3.92;;;;;;;16.87;90.26;99278.40;1772916;80;20996;-81
2022/07/25 04:26:30;;;;;;;7.33;5.08;;;;;;;16.90;89.87;99276.39;1773016;80;21090;-82
2022/07/25 04:28:57;;;;;;;8.70;4.80;;;;;;;16.90;89.86;99275.55;1772738;80;21005;-80
2022/07/25 04:31:24;;;;;;;7.78;5.00;;;;;;;16.92;89.84;99272.30;1772833;80;21046;-84
2022/07/25 04:33:51;;;;;;;9.88;4.60;;;;;;;16.94;89.75;99269.55;1772746;80;20985;-82
2022/07/25 04:36:18;;;;;;;7.55;4.67;;;;;;;16.99;89.77;99276.27;1772608;80;21000;-82
2022/07/25 04:38:44;;;;;;;7.50;4.05;;;;;;;17.02;89.55;99273.41;1772647;80;22332;-82
2022/07/25 04:41:11;;;;;;;7.37;5.08;;;;;;;17.05;89.41;99278.53;1772888;80;21016;-82
2022/07/25 04:43:38;;;;;;;8.53;4.60;;;;;;;17.07;89.48;99280.61;1770253;80;21631;-81
2022/07/25 04:46:05;;;;;;;5.53;3.95;;;;;;;17.11;89.26;99279.08;1746247;82;20990;-83
2022/07/25 04:48:31;;;;;;;5.30;4.42;;;;;;;17.15;89.08;99280.60;1747756;82;21049;-83
2022/07/25 04:50:58;;;;;;;10.90;4.65;;;;;;;17.17;88.78;99280.02;1748097;82;21090;-80
2022/07/25 04:53:24;;;;;;;8.23;5.28;;;;;;;17.17;88.92;99281.34;1747621;82;21136;-81
2022/07/25 04:55:51;;;;;;;8.68;4.55;;;;;;;17.20;89.02;99287.31;1748227;82;21065;-81
2022/07/25 04:58:18;;;;;;;10.18;4.95;;;;;;;17.22;88.92;99285.88;1748598;82;21496;-83
2022/07/25 05:00:44;;;;;;;6.83;4.47;;;;;;;17.25;88.57;99287.02;1748622;82;21065;-83
2022/07/25 05:03:12;;;;;;;10.48;5.00;;;;;;;17.27;88.32;99288.61;1748473;82;21627;-83
2022/07/25 05:05:39;;;;;;;5.75;4.83;;;;;;;17.30;88.57;99288.89;1748519;82;21015;-83
2022/07/25 05:08:06;;;;;;;6.17;4.75;;;;;;;17.36;88.41;99293.78;1748045;82;21573;-83
2022/07/25 05:10:33;;;;;;;7.65;4.85;;;;;;;17.39;87.90;99289.59;1741755;82;21055;-84
2022/07/25 05:13:00;;;;;;;6.78;4.97;;;;;;;17.41;87.93;99285.51;1742250;82;21519;-82
2022/07/25 05:15:26;;;;;;;8.83;5.30;;;;;;;17.45;88.27;99285.70;1741773;82;21137;-84
2022/07/25 05:17:54;;;;;;;9.80;5.15;;;;;;;17.51;88.16;99283.09;1741805;82;22252;-83
2022/07/25 05:20:21;;;;;;;10.30;4.90;;;;;;;17.58;87.39;99291.03;1741845;82;21095;-82
2022/07/25 05:22:49;;;;;;;7.83;4.70;;;;;;;17.63;87.48;99290.23;1742031;82;21075;-82
2022/07/25 05:25:16;;;;;;;5.85;4.55;;;;;;;17.68;87.40;99284.13;1743001;82;21008;-83
2022/07/25 05:27:42;;;;;;;9.58;4.58;;;;;;;17.74;87.37;99293.03;1742478;82;21481;-83
2022/07/25 05:30:13;;;;;;;8.03;4.67;;;;;;;17.80;86.84;99292.63;1742041;82;21039;-81
2022/07/25 05:32:40;;;;;;;8.60;5.03;;;;;;;17.83;86.38;99288.40;1742291;82;20988;-83
2022/07/25 05:35:07;;;;;;;5.58;4.95;;;;;;;17.83;86.08;99290.22;1741787;82;21017;-83
2022/07/25 05:37:35;;;;;;;12.70;4.83;;;;;;;17.85;86.37;99295.44;1742126;82;20984;-81
2022/07/25 05:40:04;;;;;;;5.90;4.28;;;;;;;17.89;86.40;99295.66;1741893;82;21139;-82
2022/07/25 05:42:31;;;;;;;8.60;5.22;;;;;;;17.96;86.21;99291.61;1742025;82;20964;-84
2022/07/25 05:44:58;;;;;;;9.63;5.03;;;;;;;18.03;85.80;99286.22;1741982;82;21515;-83
2022/07/25 05:47:25;;;;;;;8.65;4.80;;;;;;;18.05;85.11;99288.29;1741847;82;21617;-82
2022/07/25 05:49:53;;;;;;;8.00;4.55;;;;;;;18.07;85.22;99289.52;1742047;82;21510;-83
2022/07/25 05:52:19;;;;;;;7.03;4.33;;;;;;;18.10;85.32;99290.16;1741882;82;22049;-80
2022/07/25 05:54:46;;;;;;;8.10;4.90;;;;;;;18.13;84.96;99288.61;1741642;82;21055;-82
2022/07/25 05:57:12;;;;;;;6.10;4.80;;;;;;;18.16;85.14;99281.75;1747286;81;21063;-82
2022/07/25 05:59:39;;;;;;;4.92;4.35;;;;;;;18.25;85.21;99287.39;1747615;82;21083;-82
2022/07/25 06:02:06;;;;;;;9.80;4.80;;;;;;;18.35;84.94;99283.13;1748023;82;21083;-82
2022/07/25 06:04:33;;;;;;;9.20;4.58;;;;;;;18.43;84.28;99282.10;1747390;82;21623;-83
2022/07/25 06:06:59;;;;;;;8.08;5.33;;;;;;;18.54;84.38;99275.54;1747773;82;21586;-82
2022/07/25 06:09:26;;;;;;;8.23;5.35;;;;;;;18.62;83.92;99271.47;1747919;82;21063;-82
2022/07/25 06:11:52;;;;;;;9.13;5.05;;;;;;;18.68;83.12;99273.70;1747528;82;21143;-82
2022/07/25 06:14:20;;;;;;;8.10;5.25;;;;;;;18.70;83.14;99266.44;1747578;82;21098;-85
2022/07/25 06:16:47;;;;;;;8.55;4.92;;;;;;;18.81;83.15;99268.31;1747567;82;21127;-82
2022/07/25 06:19:14;;;;;;;9.65;4.67;;;;;;;18.89;82.21;99272.64;1747733;82;21075;-82
2022/07/25 06:21:40;;;;;;;6.58;4.75;;;;;;;18.91;82.08;99267.58;1747868;82;21149;-83
2022/07/25 06:24:08;;;;;;;8.65;5.17;;;;;;;18.94;81.77;99267.33;1747340;82;21067;-83
2022/07/25 06:26:37;;;;;;;9.65;4.55;;;;;;;18.99;81.86;99266.16;1747764;82;21159;-83
2022/07/25 06:29:04;;;;;;;6.53;4.33;;;;;;;19.07;81.81;99257.95;1747646;82;21107;-82
2022/07/25 06:31:31;;;;;;;10.53;4.90;;;;;;;19.18;81.88;99261.17;1747779;82;21150;-84
2022/07/25 06:33:57;;;;;;;7.53;4.72;;;;;;;19.30;82.14;99262.91;1747579;82;21130;-83
2022/07/25 06:36:24;;;;;;;7.72;4.95;;;;;;;19.44;81.59;99267.20;1747548;82;21118;-84
2022/07/25 06:38:50;;;;;;;9.78;4.50;;;;;;;19.58;81.96;99263.48;1747484;82;21554;-83
2022/07/25 06:41:17;;;;;;;13.55;4.47;;;;;;;19.73;80.61;99259.29;1747441;82;21141;-81
2022/07/25 06:43:43;;;;;;;12.47;4.42;;;;;;;19.83;80.29;99261.64;1747963;82;21028;-83
2022/07/25 06:46:10;;;;;;;6.95;4.33;;;;;;;19.93;79.80;99258.62;1748775;81;21131;-80
2022/07/25 06:48:37;;;;;;;6.40;4.60;;;;;;;20.03;79.61;99255.59;1753380;81;21077;-81
2022/07/25 06:51:04;;;;;;;8.00;4.00;;;;;;;20.17;79.24;99253.67;1753658;81;21018;-85
2022/07/25 06:53:32;;;;;;;6.45;4.60;;;;;;;20.33;79.44;99241.30;1753231;81;21163;-83
2022/07/25 06:55:59;;;;;;;6.15;4.55;;;;;;;20.51;78.11;99245.64;1751622;81;21057;-80
2022/07/25 06:58:25;;;;;;;7.37;4.60;;;;;;;20.65;77.91;99248.59;1747394;82;20994;-80
2022/07/25 07:00:52;;;;;;;6.08;4.80;;;;;;;20.73;76.72;99251.00;1747607;82;21414;-79
2022/07/25 07:03:18;;;;;;;6.20;3.83;;;;;;;20.81;74.89;99252.20;1747927;82;21026;-80
2022/07/25 07:05:46;;;;;;;7.80;3.87;;;;;;;20.76;74.02;99252.09;1747517;82;21528;-82
2022/07/25 07:08:12;;;;;;;11.22;4.97;;;;;;;20.64;73.04;99249.06;1754026;80;20997;-81
2022/07/25 07:10:39;;;;;;;7.08;4.22;;;;;;;20.50;72.92;99254.16;1772808;80;21000;-82
2022/07/25 07:13:10;;;;;;;6.72;3.90;;;;;;;20.44;73.46;99257.80;1772529;80;21068;-79
2022/07/25 07:15:37;;;;;;;4.08;3.52;;;;;;;20.49;74.05;99259.62;1772782;80;21119;-80
2022/07/25 07:18:06;;;;;;;10.82;4.35;;;;;;;20.54;73.73;99257.42;1772829;80;21781;-83
2022/07/25 07:20:34;;;;;;;6.20;3.37;;;;;;;20.58;73.85;99252.22;1772666;80;38052;-80
2022/07/25 07:23:00;;;;;;;8.08;3.70;;;;;;;20.68;73.48;99253.20;1772710;80;21040;-82
2022/07/25 07:25:27;;;;;;;6.50;3.52;;;;;;;20.80;73.03;99254.53;1773085;80;20997;-81
2022/07/25 07:27:53;;;;;;;7.97;4.15;;;;;;;20.94;72.49;99251.55;1772718;80;21329;-81
2022/07/25 07:30:20;;;;;;;9.85;3.98;;;;;;;21.13;72.79;99252.22;1772743;80;21690;-82
2022/07/25 07:32:47;;;;;;;6.33;3.70;;;;;;;21.31;72.13;99243.16;1772909;80;21095;-82
2022/07/25 07:35:15;;;;;;;6.45;3.98;;;;;;;21.47;71.94;99246.78;1772905;80;21479;-81
2022/07/25 07:37:43;;;;;;;7.42;4.08;;;;;;;21.51;69.62;99243.69;1772778;80;21048;-83
2022/07/25 07:40:13;;;;;;;5.45;3.70;;;;;;;21.48;69.86;99249.30;1772617;80;21004;-78
2022/07/25 07:42:44;;;;;;;7.60;3.80;;;;;;;21.44;68.59;99241.15;1772287;80;21190;-82
2022/07/25 07:45:20;;;;;;;9.45;4.37;;;;;;;21.37;68.40;99243.12;1772523;80;21598;-83
2022/07/25 07:47:48;;;;;;;4.95;4.25;;;;;;;21.32;67.63;99243.03;1772979;80;22291;-83
2022/07/25 07:50:16;;;;;;;12.50;4.10;;;;;;;21.28;68.75;99250.09;1772544;80;21619;-83
2022/07/25 07:52:44;;;;;;;4.25;3.55;;;;;;;21.31;69.22;99250.69;1772688;80;21047;-84
2022/07/25 07:57:55;;;;;;;4.62;3.20;;;;;;;21.45;68.42;99250.89;1778348;80;21516;-80
2022/07/25 08:00:22;;;;;;;7.25;3.65;;;;;;;21.67;69.12;99247.73;1778537;80;21008;-79
2022/07/25 08:02:51;;;;;;;3.90;3.27;;;;;;;21.91;68.33;99243.97;1778433;80;21043;-83
2022/07/25 08:05:25;;;;;;;11.12;3.67;;;;;;;22.05;66.46;99242.27;1778469;80;21000;-83
2022/07/25 08:07:52;;;;;;;6.15;3.47;;;;;;;22.12;66.15;99249.28;1779180;80;21150;-84
2022/07/25 08:10:24;;;;;;;4.75;3.35;;;;;;;22.03;64.16;99248.26;1778422;80;21051;-82
2022/07/25 08:12:52;;;;;;;5.60;3.30;;;;;;;21.91;63.99;99239.45;1778379;80;21088;-83
2022/07/25 08:15:20;;;;;;;4.95;3.08;;;;;;;21.86;65.37;99242.52;1778530;80;21095;-82
2022/07/25 08:17:53;;;;;;;5.92;3.72;;;;;;;21.98;66.79;99237.93;1778493;80;21074;-83
2022/07/25 08:20:19;;;;;;;7.37;3.45;;;;;;;22.20;66.10;99234.22;1777650;80;21412;-82
2022/07/25 08:22:46;;;;;;;5.40;3.15;;;;;;;22.44;66.04;99239.78;1778597;80;21347;-82
2022/07/25 08:25:17;;;;;;;4.53;3.65;;;;;;;22.66;63.69;99237.88;1778339;80;21102;-82
2022/07/25 08:27:43;;;;;;;9.93;3.62;;;;;;;22.78;62.42;99243.00;1778620;80;21612;-84
2022/07/25 08:30:11;;;;;;;6.65;3.10;;;;;;;22.74;61.25;99242.90;1778458;80;21122;-82
2022/07/25 08:32:59;;;;;;;10.90;3.72;;;;;;;22.66;60.65;99241.89;1779059;80;21103;-82
2022/07/25 08:35:26;;;;;;;6.50;3.58;;;;;;;22.52;60.34;99246.66;1778297;80;21189;-83
2022/07/25 08:37:53;;;;;;;4.70;3.83;;;;;;;22.36;60.81;99254.34;1778725;80;21054;-83
2022/07/25 08:40:22;;;;;;;5.65;3.00;;;;;;;22.24;60.39;99250.41;1778334;80;21193;-83
2022/07/25 08:42:49;;;;;;;4.65;3.27;;;;;;;22.14;61.11;99250.86;1779028;80;21609;-84
2022/07/25 08:45:18;;;;;;;4.72;3.40;;;;;;;22.11;62.28;99247.57;1764650;80;21598;-82
2022/07/25 08:47:47;;;;;;;7.15;3.65;;;;;;;22.16;63.25;99243.53;1763056;81;21126;-83
2022/07/25 08:50:16;;;;;;;7.67;3.67;;;;;;;22.30;63.29;99249.55;1763025;81;21315;-79
2022/07/25 08:52:44;;;;;;;6.60;3.42;;;;;;;22.33;61.25;99245.27;1763168;81;21111;-82
2022/07/25 08:55:14;;;;;;;10.70;3.87;;;;;;;22.32;61.22;99248.91;1763341;81;21063;-83
2022/07/25 08:57:42;;;;;;;7.60;3.87;;;;;;;22.30;61.30;99246.87;1763068;81;21101;-83
2022/07/25 09:00:14;;;;;;;6.90;3.25;;;;;;;22.26;61.26;99246.26;1762616;81;21477;-81
2022/07/25 09:02:41;;;;;;;6.05;3.45;;;;;;;22.20;61.37;99251.64;1762842;81;21047;-82
2022/07/25 09:05:08;;;;;;;7.33;3.77;;;;;;;22.24;61.85;99254.43;1762913;81;21004;-83
2022/07/25 09:07:40;;;;;;;6.22;4.12;;;;;;;22.35;63.17;99248.65;1763014;81;20984;-83
2022/07/25 09:10:18;;;;;;;5.10;3.92;;;;;;;22.58;63.69;99243.44;1762585;81;21198;-81
2022/07/25 09:12:58;;;;;;;4.28;3.55;;;;;;;22.84;61.76;99244.77;1762663;81;21151;-83
2022/07/25 09:15:38;;;;;;;3.83;3.00;;;;;;;23.02;61.10;99243.61;1762569;81;21123;-83
2022/07/25 09:18:11;;;;;;;4.95;3.42;;;;;;;23.22;61.28;99241.78;1756834;80;20988;-81
2022/07/25 09:20:48;;;;;;;8.08;3.50;;;;;;;23.37;59.47;99239.89;1733749;82;21135;-82
2022/07/25 09:23:37;;;;;;;7.65;3.60;;;;;;;23.53;58.65;99227.72;1733795;82;22287;-80
2022/07/25 09:26:13;;;;;;;7.00;3.20;;;;;;;23.66;57.94;99230.95;1733617;82;21703;-83
2022/07/25 09:28:45;;;;;;;4.28;3.77;;;;;;;23.83;56.75;99231.25;1733808;82;21075;-81
2022/07/25 09:31:12;;;;;;;5.15;3.40;;;;;;;23.83;55.58;99224.02;1733931;82;21495;-83
2022/07/25 09:33:55;;;;;;;5.53;3.50;;;;;;;23.83;55.84;99225.88;1733833;82;20973;-83
2022/07/25 09:36:23;;;;;;;6.05;3.37;;;;;;;23.79;56.15;99225.29;1733798;82;21153;-83
2022/07/25 09:39:04;;;;;;;4.25;3.10;;;;;;;23.84;56.90;99223.52;1733508;82;21165;-83
2022/07/25 09:41:35;;;;;;;4.83;3.27;;;;;;;24.00;58.50;99217.04;1732118;82;21111;-82
2022/07/25 09:44:01;;;;;;;4.05;3.60;;;;;;;24.24;57.97;99226.43;1733520;82;21480;-82
2022/07/25 09:46:31;;;;;;;9.95;3.90;;;;;;;24.39;56.84;99214.19;1733813;82;21021;-83
2022/07/25 09:48:59;;;;;;;5.40;3.17;;;;;;;24.44;56.05;99216.44;1733628;82;21172;-82
2022/07/25 09:51:26;;;;;;;8.38;3.22;;;;;;;24.42;54.92;99218.44;1733696;82;20950;-82
2022/07/25 09:53:52;;;;;;;5.65;3.47;;;;;;;24.34;53.42;99219.67;1733633;82;21583;-81
2022/07/25 09:56:19;;;;;;;3.67;3.20;;;;;;;24.27;54.16;99224.29;1734344;81;21044;-80
2022/07/25 09:58:46;;;;;;;6.00;3.25;;;;;;;24.30;55.70;99223.16;1747538;82;21512;-82
2022/07/25 10:01:19;;;;;;;3.72;3.30;;;;;;;24.41;56.31;99220.28;1747803;82;20980;-80
2022/07/25 10:04:14;;;;;;;3.15;2.85;;;;;;;24.51;55.74;99216.69;1747576;82;21630;-82
2022/07/25 10:06:56;;;;;;;3.98;3.25;;;;;;;24.54;55.19;99221.77;1747723;82;21051;-81
2022/07/25 10:09:23;;;;;;;8.58;3.17;;;;;;;24.53;53.48;99226.78;1747384;82;21075;-84
2022/07/25 10:12:09;;;;;;;5.67;3.08;;;;;;;24.40;52.87;99229.34;1747815;82;21122;-83
2022/07/25 10:14:36;;;;;;;3.62;3.10;;;;;;;24.39;53.74;99219.56;1746709;82;21349;-81
2022/07/25 10:17:04;;;;;;;5.95;3.70;;;;;;;24.55;54.66;99214.09;1747589;82;21098;-85
2022/07/25 10:19:47;;;;;;;5.15;3.15;;;;;;;24.71;53.67;99216.95;1709424;83;21059;-82
2022/07/25 10:22:15;;;;;;;4.03;3.30;;;;;;;24.88;53.84;99211.74;1720166;82;21054;-81
2022/07/25 10:24:46;;;;;;;4.10;3.08;;;;;;;25.03;52.77;99211.55;1747783;82;21901;-84
2022/07/25 10:27:16;;;;;;;17.60;4.50;;;;;;;25.14;52.46;99213.19;1747509;82;21127;-83
2022/07/25 10:29:43;;;;;;;5.37;3.40;;;;;;;25.18;50.33;99215.42;1746927;82;21942;-81
2022/07/25 10:32:14;;;;;;;4.87;3.22;;;;;;;25.14;49.97;99210.50;1672231;82;21071;-82
2022/07/25 10:34:40;;;;;;;6.28;3.95;;;;;;;25.04;50.40;99205.19;1719160;82;21070;-81
2022/07/25 10:37:16;;;;;;;8.70;3.45;;;;;;;24.98;50.71;99213.86;1672460;82;21700;-82
2022/07/25 10:39:45;;;;;;;5.75;3.80;;;;;;;24.80;51.05;99220.09;1747736;82;22001;-80
2022/07/25 10:42:14;;;;;;;6.08;3.90;;;;;;;24.67;50.58;99219.60;1747342;82;21102;-83
2022/07/25 10:44:45;;;;;;;6.60;3.72;;;;;;;24.45;50.05;99218.14;1746070;81;21078;-83
2022/07/25 10:47:13;;;;;;;7.45;3.67;;;;;;;24.19;51.38;99226.03;1731769;82;21125;-83
2022/07/25 10:49:42;;;;;;;5.12;3.60;;;;;;;24.05;52.95;99225.52;1731415;81;21113;-84
2022/07/25 10:52:16;;;;;;;4.37;3.10;;;;;;;23.98;53.60;99229.78;1731721;82;21119;-83
2022/07/25 10:54:59;;;;;;;3.45;2.87;;;;;;;24.00;54.17;99235.85;1731481;82;21002;-82
2022/07/25 10:57:26;;;;;;;7.53;3.62;;;;;;;23.96;54.43;99223.72;1725553;82;21128;-82
2022/07/25 10:59:53;;;;;;;3.90;3.50;;;;;;;23.93;54.48;99230.72;1685872;82;20982;-82
2022/07/25 11:02:19;;;;;;;7.33;4.08;;;;;;;23.90;54.76;99232.34;1714079;83;21002;-82
2022/07/25 11:04:58;;;;;;;4.00;3.40;;;;;;;23.87;55.07;99224.58;1713630;83;21115;-81
2022/07/25 11:07:27;;;;;;;4.25;3.65;;;;;;;23.90;54.93;99228.32;1710281;83;21072;-83
2022/07/25 11:09:58;;;;;;;4.50;3.75;;;;;;;23.95;55.38;99223.86;1715232;82;21101;-83
2022/07/25 11:12:27;;;;;;;5.62;3.55;;;;;;;23.98;55.77;99221.72;1749064;81;21067;-83
2022/07/25 11:15:07;;;;;;;6.42;3.45;;;;;;;24.12;54.71;99223.08;1749841;82;21087;-84
2022/07/25 11:17:33;;;;;;;4.42;3.40;;;;;;;24.31;54.56;99210.08;1749876;82;21499;-82
2022/07/25 11:20:06;;;;;;;8.70;4.03;;;;;;;24.56;54.22;99211.73;1714268;83;21518;-83
2022/07/25 11:22:34;;;;;;;8.10;4.72;;;;;;;24.75;53.09;99211.62;1713873;83;21614;-82
2022/07/25 11:25:02;;;;;;;7.28;4.17;;;;;;;24.84;51.17;99206.66;1714388;83;21656;-81
2022/07/25 11:27:33;;;;;;;7.87;3.55;;;;;;;24.76;51.52;99204.39;1713819;83;21066;-82
2022/07/25 11:30:16;;;;;;;8.75;4.25;;;;;;;24.74;50.86;99204.54;1714081;83;22294;-82
2022/07/25 11:32:49;;;;;;;6.03;4.08;;;;;;;24.74;51.29;99206.39;1749930;82;21012;-82
2022/07/25 11:35:19;;;;;;;8.78;4.15;;;;;;;24.89;52.13;99202.17;1750080;82;21103;-81
2022/07/25 11:37:51;;;;;;;6.08;3.22;;;;;;;25.12;51.62;99201.73;1685760;83;21106;-80
2022/07/25 11:40:15;;;;;;;6.92;3.52;;;;;;;25.27;48.33;99198.00;1713616;83;21062;-81